Crane, Montana
Current Conditions -  °F | °C
As of 4:55 AM on Thursday 27 Nov 2014 (Local Time) from KSDY Reporting Station
Scattered Clouds Scattered Clouds  
Wind Chill:   Ceiling: Unl
Heat Index: 18°   Visibility: 10mi
Dew Point: 12°   Wind: 6mph
Humidity: 79%   Direction: 80°E
Pressure: 30.2"   Gusts: NA
Location:  47.57°N, 104.25°W
Report Text: KSDY 271155Z AUTO 08005KT 10SM FEW048 SCT090 M08/M11 A3020 RMK AO1 11080 21130 57024
Loading
Personal Weather Stations






























Interactive Weather Map New forecast layout! Learn more

10-Day Weather Forecast

Advertisements
Track Severe Weather on mobile